createdAt,value
2022-08-17T00:00:44.113Z,92.47
2022-08-17T00:03:22.420Z,92.58
2022-08-17T00:06:07.654Z,92.02
2022-08-17T00:08:41.291Z,91.79
2022-08-17T00:11:14.892Z,91.46
2022-08-17T00:13:51.865Z,89.83
2022-08-17T00:16:55.348Z,89.23
2022-08-17T00:19:26.689Z,91.43
2022-08-17T00:22:31.784Z,89.79
2022-08-17T00:24:52.427Z,87.87
2022-08-17T00:27:22.399Z,90.54
2022-08-17T00:29:52.804Z,91.92
2022-08-17T00:33:12.248Z,93.22
2022-08-17T00:35:18.434Z,92.68
2022-08-17T00:37:48.712Z,93.49
2022-08-17T00:40:20.812Z,93.74
2022-08-17T00:42:55.630Z,94.41
2022-08-17T00:45:25.464Z,95.19
2022-08-17T00:47:56.656Z,95.84
2022-08-17T00:50:26.727Z,95.88
2022-08-17T00:52:58.448Z,95.89
2022-08-17T00:55:30.384Z,96.13
2022-08-17T00:58:06.061Z,93.47
2022-08-17T01:00:41.447Z,91.02
2022-08-17T01:03:17.154Z,90.88
2022-08-17T01:05:49.780Z,90.63
2022-08-17T01:08:25.784Z,90.25
2022-08-17T01:11:01.805Z,90.34
2022-08-17T01:13:42.829Z,92.25
2022-08-17T01:16:26.656Z,94.60
2022-08-17T01:19:01.146Z,95.74
2022-08-17T01:21:53.255Z,95.86
2022-08-17T01:24:23.776Z,96.33
2022-08-17T01:26:53.573Z,96.30
2022-08-17T01:29:31.709Z,96.60
2022-08-17T01:32:06.028Z,94.27
2022-08-17T01:34:42.676Z,94.65
2022-08-17T01:37:16.062Z,95.69
2022-08-17T01:39:55.409Z,96.55
2022-08-17T01:42:35.902Z,97.89
2022-08-17T01:45:21.274Z,97.09
2022-08-17T01:47:53.321Z,97.44
2022-08-17T01:50:31.138Z,97.72
2022-08-17T01:53:09.282Z,97.96
2022-08-17T01:55:58.457Z,97.26
2022-08-17T01:58:29.081Z,96.13
2022-08-17T02:01:01.470Z,97.28
2022-08-17T02:03:33.163Z,97.44
2022-08-17T02:06:03.713Z,97.53
2022-08-17T02:08:39.164Z,98.03
2022-08-17T02:11:28.746Z,98.17
2022-08-17T02:14:03.433Z,99.46
2022-08-17T02:16:38.218Z,99.14
2022-08-17T02:19:14.136Z,98.55
2022-08-17T02:21:48.521Z,96.63
2022-08-17T02:25:00.385Z,97.03
2022-08-17T02:27:31.260Z,97.85
2022-08-17T02:30:01.310Z,99.05
2022-08-17T02:32:31.605Z,99.36
2022-08-17T02:35:01.210Z,99.42
2022-08-17T02:37:30.701Z,99.31
2022-08-17T02:40:00.966Z,98.88
2022-08-17T02:42:34.347Z,98.34
2022-08-17T02:45:06.704Z,98.06
2022-08-17T02:47:37.608Z,97.78
2022-08-17T02:50:10.036Z,97.94
2022-08-17T02:53:02.369Z,99.11
2022-08-17T02:55:38.846Z,99.68
2022-08-17T02:58:11.603Z,99.23
2022-08-17T03:00:44.685Z,99.96
2022-08-17T03:03:19.415Z,98.39
2022-08-17T03:05:54.377Z,96.28
2022-08-17T03:08:26.001Z,95.43
2022-08-17T03:10:56.838Z,94.71
2022-08-17T03:13:27.873Z,96.55
2022-08-17T03:15:57.681Z,98.13
2022-08-17T03:18:28.847Z,97.43
2022-08-17T03:21:02.102Z,99.38
2022-08-17T03:23:33.283Z,100.00
2022-08-17T03:26:03.665Z,99.96
2022-08-17T03:28:42.587Z,99.70
2022-08-17T03:31:11.710Z,100.00
2022-08-17T03:33:40.817Z,100.00
2022-08-17T03:36:11.611Z,100.00
2022-08-17T03:38:41.472Z,100.00
2022-08-17T03:41:12.206Z,100.00
2022-08-17T03:43:42.877Z,100.00
2022-08-17T03:46:35.348Z,99.70
2022-08-17T03:49:25.865Z,99.56
2022-08-17T03:52:15.952Z,100.00
2022-08-17T03:55:04.966Z,100.00
2022-08-17T03:57:35.437Z,99.98
2022-08-17T04:00:05.969Z,99.98
2022-08-17T04:02:43.698Z,99.22
2022-08-17T04:05:12.758Z,98.57
2022-08-17T04:07:42.046Z,98.45
2022-08-17T04:10:11.665Z,98.66
2022-08-17T04:12:53.361Z,99.41
2022-08-17T04:15:23.476Z,99.18
2022-08-17T04:17:54.120Z,98.62
2022-08-17T04:20:25.324Z,98.36
2022-08-17T04:23:05.855Z,97.92
2022-08-17T04:25:37.143Z,97.49
2022-08-17T04:28:07.531Z,97.27
2022-08-17T04:30:46.210Z,95.96
2022-08-17T04:33:26.778Z,94.52
2022-08-17T04:36:03.019Z,94.19
2022-08-17T04:38:35.570Z,94.02
2022-08-17T04:41:24.155Z,94.02
2022-08-17T04:43:58.795Z,94.04
2022-08-17T04:46:33.535Z,94.38
2022-08-17T04:49:06.420Z,94.94
2022-08-17T04:51:54.734Z,94.89
2022-08-17T04:54:29.161Z,93.92
2022-08-17T04:56:58.610Z,93.34
2022-08-17T04:59:27.650Z,93.34
2022-08-17T05:01:56.557Z,93.22
2022-08-17T05:04:35.119Z,92.99
2022-08-17T05:07:04.903Z,92.64
2022-08-17T05:09:33.781Z,92.58
2022-08-17T05:12:03.344Z,92.23
2022-08-17T05:14:33.545Z,91.63
2022-08-17T05:17:09.658Z,91.48
2022-08-17T05:19:40.386Z,91.39
2022-08-17T05:22:09.576Z,90.55
2022-08-17T05:24:43.475Z,89.70
2022-08-17T05:27:23.456Z,88.09
2022-08-17T05:29:52.496Z,87.81
2022-08-17T05:32:48.324Z,87.78
2022-08-17T05:35:11.507Z,87.72
2022-08-17T05:37:40.182Z,87.75
2022-08-17T05:40:10.760Z,88.08
2022-08-17T05:42:39.579Z,88.12
2022-08-17T05:45:08.808Z,87.77
2022-08-17T05:47:40.146Z,87.62
2022-08-17T05:50:10.855Z,86.93
2022-08-17T05:52:56.817Z,86.16
2022-08-17T05:55:49.426Z,85.70
2022-08-17T05:58:47.096Z,85.11
2022-08-17T06:01:22.713Z,85.12
2022-08-17T06:04:35.564Z,84.76
2022-08-17T06:07:29.848Z,84.31
2022-08-17T06:10:17.999Z,84.04
2022-08-17T06:13:05.930Z,83.97
2022-08-17T06:15:54.274Z,83.38
2022-08-17T06:18:29.002Z,81.98
2022-08-17T06:21:02.502Z,80.41
2022-08-17T06:23:38.260Z,79.99
2022-08-17T06:26:37.374Z,78.69
2022-08-17T06:29:36.035Z,78.35
2022-08-17T06:32:10.266Z,77.85
2022-08-17T06:34:44.035Z,77.12
2022-08-17T06:37:27.904Z,76.91
2022-08-17T06:40:12.759Z,77.76
2022-08-17T06:43:05.830Z,71.45
2022-08-17T06:45:42.186Z,71.85
2022-08-17T06:48:43.134Z,72.71
2022-08-17T06:51:18.777Z,70.15
2022-08-17T06:54:07.638Z,67.55
2022-08-17T06:56:57.961Z,67.01
2022-08-17T06:59:56.259Z,65.04
2022-08-17T07:02:29.409Z,64.14
2022-08-17T07:05:19.852Z,63.53
2022-08-17T07:08:02.406Z,62.87
2022-08-17T07:10:43.745Z,61.04
2022-08-17T07:13:34.191Z,60.40
2022-08-17T07:16:34.003Z,60.49
2022-08-17T07:19:04.533Z,60.35
2022-08-17T07:22:14.378Z,59.91
2022-08-17T07:24:49.006Z,60.38
2022-08-17T07:27:27.843Z,59.67
2022-08-17T07:30:11.107Z,59.89
2022-08-17T07:32:45.579Z,59.65
2022-08-17T07:35:31.296Z,60.01
2022-08-17T07:38:24.708Z,59.82
2022-08-17T07:40:58.235Z,58.41
2022-08-17T07:43:42.649Z,58.28
2022-08-17T07:46:31.420Z,58.41
2022-08-17T07:49:08.929Z,57.44
2022-08-17T07:51:46.015Z,56.76
2022-08-17T07:54:22.745Z,55.54
2022-08-17T07:56:53.930Z,53.83
2022-08-17T07:59:33.765Z,52.62
2022-08-17T08:02:07.223Z,51.67
2022-08-17T08:05:00.631Z,50.83
2022-08-17T08:07:36.383Z,50.36
2022-08-17T08:10:16.341Z,48.51
2022-08-17T08:13:01.101Z,49.10
2022-08-17T08:15:44.985Z,47.78
2022-08-17T08:18:38.673Z,47.63
2022-08-17T08:21:33.512Z,47.05
2022-08-17T08:24:31.389Z,47.14
2022-08-17T08:27:12.045Z,47.81
2022-08-17T08:29:54.861Z,48.29
2022-08-17T08:32:50.977Z,49.10
2022-08-17T08:35:31.453Z,47.00
2022-08-17T08:38:27.172Z,47.24
2022-08-17T08:41:19.486Z,48.11
2022-08-17T08:44:01.111Z,48.47
2022-08-17T08:47:07.543Z,48.61
2022-08-17T08:50:03.895Z,47.94
2022-08-17T08:52:36.497Z,47.05
2022-08-17T08:55:20.431Z,47.43
2022-08-17T08:57:55.775Z,46.43
2022-08-17T09:00:26.770Z,46.07
2022-08-17T09:03:52.430Z,45.41
2022-08-17T09:06:39.422Z,46.09
2022-08-17T09:10:00.048Z,45.68
2022-08-17T09:12:45.242Z,43.77
2022-08-17T09:15:46.163Z,43.84
2022-08-17T09:19:01.661Z,43.06
2022-08-17T09:21:33.873Z,43.64
2022-08-17T09:24:20.703Z,43.40
2022-08-17T09:27:03.645Z,43.85
2022-08-17T09:29:37.043Z,42.73
2022-08-17T09:32:33.273Z,42.14
2022-08-17T09:35:08.814Z,42.28
2022-08-17T09:38:05.455Z,42.26
2022-08-17T09:41:16.330Z,42.35
2022-08-17T09:44:23.597Z,43.28
2022-08-17T09:47:00.394Z,44.24
2022-08-17T09:49:35.096Z,44.32
2022-08-17T09:52:26.972Z,45.08
2022-08-17T09:54:58.888Z,45.81
2022-08-17T09:57:34.579Z,46.24
2022-08-17T10:00:13.998Z,46.08
2022-08-17T10:02:42.650Z,47.05
2022-08-17T10:05:38.103Z,48.24
2022-08-17T10:08:15.711Z,49.15
2022-08-17T10:10:52.229Z,49.54
2022-08-17T10:13:53.488Z,48.76
2022-08-17T10:16:38.547Z,48.73
2022-08-17T10:19:45.061Z,48.71
2022-08-17T10:22:52.651Z,49.29
2022-08-17T10:25:54.526Z,49.98
2022-08-17T10:28:30.645Z,49.34
2022-08-17T10:31:33.281Z,48.50
2022-08-17T10:33:58.053Z,46.58
2022-08-17T10:36:46.790Z,46.18
2022-08-17T10:39:33.774Z,46.72
2022-08-17T10:42:30.493Z,46.39
2022-08-17T10:45:22.189Z,44.35
2022-08-17T10:48:18.938Z,43.77
2022-08-17T10:50:57.962Z,43.38
2022-08-17T10:53:32.496Z,43.26
2022-08-17T10:56:13.742Z,42.46
2022-08-17T10:59:00.543Z,42.21
2022-08-17T11:01:38.479Z,42.18
2022-08-17T11:04:25.193Z,42.56
2022-08-17T11:07:06.261Z,43.46
2022-08-17T11:09:36.585Z,42.45
2022-08-17T11:12:42.265Z,41.60
2022-08-17T11:15:26.178Z,39.71
2022-08-17T11:18:29.064Z,39.70
2022-08-17T11:21:35.124Z,37.87
2022-08-17T11:24:20.683Z,37.88
2022-08-17T11:27:13.967Z,36.43
2022-08-17T11:30:01.440Z,37.47
2022-08-17T11:32:47.598Z,38.77
2022-08-17T11:35:23.134Z,39.36
2022-08-17T11:38:25.209Z,39.84
2022-08-17T11:41:27.892Z,40.54
2022-08-17T11:44:08.147Z,41.51
2022-08-17T11:47:19.124Z,41.63
2022-08-17T11:50:36.727Z,40.31
2022-08-17T11:53:06.733Z,40.19
2022-08-17T11:55:38.550Z,39.20
2022-08-17T11:58:37.627Z,37.72
2022-08-17T12:01:32.931Z,36.61
2022-08-17T12:04:34.021Z,36.70
2022-08-17T12:07:21.612Z,36.43
2022-08-17T12:09:53.986Z,36.57
2022-08-17T12:12:33.366Z,36.43
2022-08-17T12:15:12.133Z,35.75
2022-08-17T12:17:42.852Z,36.99
2022-08-17T12:20:23.707Z,36.31
2022-08-17T12:23:01.747Z,36.26
2022-08-17T12:25:49.789Z,36.32
2022-08-17T12:28:37.119Z,35.70
2022-08-17T12:31:25.249Z,36.82
2022-08-17T12:33:54.359Z,35.40
2022-08-17T12:36:26.171Z,36.21
2022-08-17T12:39:13.088Z,36.27
2022-08-17T12:41:47.282Z,36.45
2022-08-17T12:44:17.862Z,37.25
2022-08-17T12:46:46.447Z,37.38
2022-08-17T12:49:36.715Z,37.10
2022-08-17T12:52:20.277Z,38.01
2022-08-17T12:55:11.795Z,38.49
2022-08-17T12:57:47.751Z,39.16
2022-08-17T13:00:22.179Z,39.05
2022-08-17T13:03:17.375Z,39.41
2022-08-17T13:06:07.874Z,39.64
2022-08-17T13:08:40.348Z,39.82
2022-08-17T13:11:15.284Z,41.01
2022-08-17T13:13:46.963Z,41.25
2022-08-17T13:16:18.181Z,41.11
2022-08-17T13:18:48.914Z,41.95
2022-08-17T13:21:20.070Z,42.67
2022-08-17T13:24:11.275Z,43.81
2022-08-17T13:26:57.464Z,45.28
2022-08-17T13:29:31.793Z,44.67
2022-08-17T13:32:13.353Z,44.74
2022-08-17T13:35:13.124Z,46.74
2022-08-17T13:37:37.266Z,49.28
2022-08-17T13:40:11.999Z,51.05
2022-08-17T13:42:50.295Z,53.37
2022-08-17T13:45:39.606Z,55.83
2022-08-17T13:48:17.477Z,61.57
2022-08-17T13:50:48.311Z,60.68
2022-08-17T13:53:24.577Z,63.21
2022-08-17T13:55:59.813Z,64.15
2022-08-17T13:58:34.236Z,65.02
2022-08-17T14:01:30.333Z,64.51
2022-08-17T14:04:01.556Z,65.56
2022-08-17T14:06:51.963Z,68.27
2022-08-17T14:09:47.828Z,68.75
2022-08-17T14:12:20.330Z,68.35
2022-08-17T14:14:50.117Z,67.20
2022-08-17T14:17:19.828Z,66.80
2022-08-17T14:19:48.613Z,66.23
2022-08-17T14:22:45.252Z,65.47
2022-08-17T14:25:33.397Z,66.47
2022-08-17T14:28:02.184Z,66.72
2022-08-17T14:30:31.381Z,65.98
2022-08-17T14:33:00.062Z,66.10
2022-08-17T14:35:29.978Z,66.44
2022-08-17T14:37:58.743Z,64.91
2022-08-17T14:40:28.474Z,63.87
2022-08-17T14:42:58.284Z,64.61
2022-08-17T14:45:33.263Z,65.39
2022-08-17T14:48:05.919Z,66.58
2022-08-17T14:50:36.728Z,64.57
2022-08-17T14:53:08.193Z,66.16
2022-08-17T14:55:40.145Z,66.66
2022-08-17T14:58:09.408Z,66.35
2022-08-17T15:00:41.410Z,64.96
2022-08-17T15:03:11.760Z,66.39
2022-08-17T15:05:40.525Z,64.78
2022-08-17T15:08:09.306Z,64.76
2022-08-17T15:10:39.531Z,64.75
2022-08-17T15:13:21.629Z,63.41
2022-08-17T15:15:50.926Z,63.26
2022-08-17T15:18:19.840Z,60.66
2022-08-17T15:20:50.341Z,60.56
2022-08-17T15:23:22.212Z,59.50
2022-08-17T15:25:53.155Z,57.93
2022-08-17T15:28:23.256Z,58.43
2022-08-17T15:30:53.540Z,58.44
2022-08-17T15:33:34.631Z,58.94
2022-08-17T15:36:09.190Z,60.23
2022-08-17T15:38:39.592Z,59.73
2022-08-17T15:41:10.113Z,60.44
2022-08-17T15:43:38.626Z,61.12
2022-08-17T15:46:12.493Z,63.01
2022-08-17T15:48:43.189Z,65.15
2022-08-17T15:51:22.782Z,65.44
2022-08-17T15:53:59.892Z,66.27
2022-08-17T15:56:33.494Z,66.82
2022-08-17T15:59:02.484Z,66.52
2022-08-17T16:03:14.041Z,65.74
2022-08-17T16:04:30.005Z,66.90
2022-08-17T16:07:00.526Z,67.38
2022-08-17T16:09:29.288Z,67.57
2022-08-17T16:12:00.005Z,67.42
2022-08-17T16:14:34.084Z,69.29
2022-08-17T16:17:40.231Z,70.02
2022-08-17T16:19:56.378Z,70.76
2022-08-17T16:22:40.324Z,71.24
2022-08-17T16:25:16.484Z,72.03
2022-08-17T16:27:46.519Z,72.37
2022-08-17T16:30:17.618Z,73.22
2022-08-17T16:32:48.470Z,72.98
2022-08-17T16:35:18.476Z,72.25
2022-08-17T16:37:47.792Z,72.65
2022-08-17T16:40:17.392Z,74.13
2022-08-17T16:42:47.149Z,73.63
2022-08-17T16:45:21.124Z,73.68
2022-08-17T16:47:50.501Z,74.46
2022-08-17T16:50:21.977Z,77.13
2022-08-17T16:52:51.781Z,76.94
2022-08-17T16:55:22.954Z,76.41
2022-08-17T16:57:51.514Z,76.81
2022-08-17T17:00:21.332Z,76.43
2022-08-17T17:02:50.373Z,77.13
2022-08-17T17:05:22.589Z,78.71
2022-08-17T17:08:03.869Z,78.31
2022-08-17T17:10:55.802Z,78.51
2022-08-17T17:13:26.488Z,79.12
2022-08-17T17:16:09.761Z,78.14
2022-08-17T17:18:48.581Z,79.28
2022-08-17T17:21:22.901Z,79.35
2022-08-17T17:24:00.081Z,77.49
2022-08-17T17:26:28.593Z,77.94
2022-08-17T17:29:14.502Z,78.95
2022-08-17T17:31:55.132Z,80.62
2022-08-17T17:34:26.277Z,80.31
2022-08-17T17:36:59.042Z,80.52
2022-08-17T17:39:56.165Z,80.57
2022-08-17T17:42:31.887Z,79.31
2022-08-17T17:45:07.902Z,81.12
2022-08-17T17:47:37.219Z,84.84
2022-08-17T17:50:07.693Z,84.06
2022-08-17T17:52:58.797Z,85.89
2022-08-17T17:56:08.904Z,85.42
2022-08-17T17:59:26.942Z,89.00
2022-08-17T18:02:35.975Z,88.23
2022-08-17T18:05:31.999Z,88.38
2022-08-17T18:08:10.763Z,91.38
2022-08-17T18:10:55.181Z,91.13
2022-08-17T18:13:53.763Z,91.52
2022-08-17T18:16:23.572Z,91.22
2022-08-17T18:18:53.091Z,89.95
2022-08-17T18:21:23.134Z,89.21
2022-08-17T18:24:07.352Z,91.46
2022-08-17T18:26:44.947Z,91.03
2022-08-17T18:29:37.589Z,89.44
2022-08-17T18:32:26.497Z,89.33
2022-08-17T18:34:59.105Z,88.28
2022-08-17T18:37:36.424Z,88.16
2022-08-17T18:40:18.702Z,91.56
2022-08-17T18:43:03.582Z,90.75
2022-08-17T18:45:50.742Z,88.75
2022-08-17T18:48:33.400Z,91.88
2022-08-17T18:51:21.280Z,90.92
2022-08-17T18:54:24.455Z,92.62
2022-08-17T18:56:58.332Z,91.74
2022-08-17T18:59:41.680Z,92.46
2022-08-17T19:02:33.659Z,93.24
2022-08-17T19:05:39.670Z,91.73
2022-08-17T19:08:17.776Z,92.42
2022-08-17T19:10:53.540Z,92.88
2022-08-17T19:13:29.485Z,94.27
2022-08-17T19:16:14.643Z,93.90
2022-08-17T19:18:52.893Z,92.39
2022-08-17T19:21:33.227Z,89.62
2022-08-17T19:24:21.570Z,90.12
2022-08-17T19:27:12.383Z,91.22
2022-08-17T19:30:07.517Z,90.27
2022-08-17T19:32:37.190Z,93.83
2022-08-17T19:35:15.033Z,92.66
2022-08-17T19:37:59.040Z,93.74
2022-08-17T19:40:54.065Z,94.95
2022-08-17T19:43:23.031Z,95.63
2022-08-17T19:46:06.348Z,95.57
2022-08-17T19:48:40.580Z,95.98
2022-08-17T19:51:20.731Z,96.32
2022-08-17T19:54:04.801Z,97.03
2022-08-17T19:56:49.434Z,93.08
2022-08-17T20:00:03.174Z,91.85
2022-08-17T20:02:50.396Z,92.66
2022-08-17T20:06:08.429Z,94.99
2022-08-17T20:08:38.698Z,97.22
2022-08-17T20:11:12.065Z,98.44
2022-08-17T20:13:50.071Z,98.31
2022-08-17T20:16:20.490Z,97.64
2022-08-17T20:19:07.505Z,97.04
2022-08-17T20:21:44.994Z,95.15
2022-08-17T20:24:41.330Z,95.73
2022-08-17T20:27:12.782Z,97.06
2022-08-17T20:29:59.691Z,97.20
2022-08-17T20:32:33.570Z,98.54
2022-08-17T20:35:24.749Z,98.75
2022-08-17T20:37:58.319Z,98.36
2022-08-17T20:40:40.314Z,98.28
2022-08-17T20:43:30.394Z,99.08
2022-08-17T20:46:02.767Z,98.31
2022-08-17T20:48:39.814Z,98.02
2022-08-17T20:51:27.686Z,97.70
2022-08-17T20:53:59.133Z,96.41
2022-08-17T20:56:57.965Z,97.03
2022-08-17T20:59:27.951Z,97.24
2022-08-17T21:02:12.369Z,98.27
2022-08-17T21:04:50.837Z,97.23
2022-08-17T21:07:32.956Z,95.76
2022-08-17T21:10:14.411Z,94.30
2022-08-17T21:12:52.550Z,93.15
2022-08-17T21:15:33.174Z,92.38
2022-08-17T21:18:20.864Z,93.28
2022-08-17T21:21:07.919Z,95.03
2022-08-17T21:23:57.598Z,97.71
2022-08-17T21:26:50.293Z,98.55
2022-08-17T21:29:31.244Z,98.21
2022-08-17T21:32:05.490Z,97.08
2022-08-17T21:34:42.829Z,97.15
2022-08-17T21:37:20.727Z,98.97
2022-08-17T21:39:56.028Z,97.62
2022-08-17T21:42:33.778Z,97.65
2022-08-17T21:45:29.083Z,94.69
2022-08-17T21:48:24.678Z,97.05
2022-08-17T21:51:14.852Z,98.97
2022-08-17T21:53:45.205Z,99.39
2022-08-17T21:56:35.905Z,99.19
2022-08-17T21:59:27.640Z,100.00
2022-08-17T22:02:07.898Z,100.00
2022-08-17T22:04:42.718Z,100.00
2022-08-17T22:07:14.070Z,100.00
2022-08-17T22:09:46.475Z,100.00
2022-08-17T22:12:24.840Z,100.00
2022-08-17T22:14:56.408Z,100.00
2022-08-17T22:17:39.405Z,100.00
2022-08-17T22:20:15.331Z,100.00
2022-08-17T22:23:05.475Z,99.93
2022-08-17T22:25:41.222Z,99.76
2022-08-17T22:28:12.604Z,99.78
2022-08-17T22:30:58.662Z,100.00
2022-08-17T22:33:33.913Z,100.00
2022-08-17T22:36:23.172Z,100.00
2022-08-17T22:39:02.708Z,99.96
2022-08-17T22:41:34.882Z,100.00
2022-08-17T22:44:17.569Z,100.00
2022-08-17T22:47:12.290Z,100.00
2022-08-17T22:50:03.451Z,100.00
2022-08-17T22:52:56.872Z,100.00
2022-08-17T22:55:46.857Z,100.00
2022-08-17T22:58:37.782Z,100.00
2022-08-17T23:01:26.617Z,100.00
2022-08-17T23:04:11.678Z,100.00
2022-08-17T23:06:44.955Z,100.00
2022-08-17T23:09:14.238Z,100.00
2022-08-17T23:11:49.582Z,100.00
2022-08-17T23:14:21.544Z,100.00
2022-08-17T23:16:51.610Z,100.00
2022-08-17T23:19:22.106Z,100.00
2022-08-17T23:21:53.307Z,100.00
2022-08-17T23:24:27.297Z,100.00
2022-08-17T23:26:58.545Z,100.00
2022-08-17T23:29:29.978Z,100.00
2022-08-17T23:32:01.875Z,99.45
2022-08-17T23:34:32.688Z,99.59
2022-08-17T23:37:03.015Z,100.00
2022-08-17T23:39:33.455Z,100.00
2022-08-17T23:42:08.623Z,100.00
2022-08-17T23:44:39.919Z,100.00
2022-08-17T23:47:10.472Z,100.00
2022-08-17T23:49:41.963Z,100.00
2022-08-17T23:52:16.434Z,100.00
2022-08-17T23:54:47.849Z,100.00
2022-08-17T23:57:33.733Z,100.00
